sensor_id;sensor_type;location;lat;lon;timestamp;temperature;humidity
41533;DHT22;27262;-35.248;149.138;2023-06-22T00:01:11;17.20;62.10
41533;DHT22;27262;-35.248;149.138;2023-06-22T00:03:42;17.30;62.30
41533;DHT22;27262;-35.248;149.138;2023-06-22T00:06:12;17.30;62.20
41533;DHT22;27262;-35.248;149.138;2023-06-22T00:08:43;17.40;62.20
41533;DHT22;27262;-35.248;149.138;2023-06-22T00:11:13;17.50;62.20
41533;DHT22;27262;-35.248;149.138;2023-06-22T00:13:44;17.50;62.70
41533;DHT22;27262;-35.248;149.138;2023-06-22T00:16:14;17.60;61.70
41533;DHT22;27262;-35.248;149.138;2023-06-22T00:18:44;17.70;61.60
41533;DHT22;27262;-35.248;149.138;2023-06-22T00:21:16;17.70;61.40
41533;DHT22;27262;-35.248;149.138;2023-06-22T00:23:49;17.80;61.30
41533;DHT22;27262;-35.248;149.138;2023-06-22T00:26:20;17.90;61.10
41533;DHT22;27262;-35.248;149.138;2023-06-22T00:28:50;17.90;61.00
41533;DHT22;27262;-35.248;149.138;2023-06-22T00:31:21;17.90;60.90
41533;DHT22;27262;-35.248;149.138;2023-06-22T00:33:51;17.90;60.60
41533;DHT22;27262;-35.248;149.138;2023-06-22T00:36:22;18.00;60.50
41533;DHT22;27262;-35.248;149.138;2023-06-22T00:38:53;18.00;60.50
41533;DHT22;27262;-35.248;149.138;2023-06-22T00:41:23;18.00;60.60
41533;DHT22;27262;-35.248;149.138;2023-06-22T00:43:53;18.10;60.70
41533;DHT22;27262;-35.248;149.138;2023-06-22T00:46:24;18.10;60.70
41533;DHT22;27262;-35.248;149.138;2023-06-22T00:48:55;18.10;60.60
41533;DHT22;27262;-35.248;149.138;2023-06-22T00:51:26;18.20;60.60
41533;DHT22;27262;-35.248;149.138;2023-06-22T00:53:57;18.20;60.50
41533;DHT22;27262;-35.248;149.138;2023-06-22T00:56:28;18.30;60.30
41533;DHT22;27262;-35.248;149.138;2023-06-22T00:58:59;18.30;60.30
41533;DHT22;27262;-35.248;149.138;2023-06-22T01:01:33;18.30;60.20
41533;DHT22;27262;-35.248;149.138;2023-06-22T01:04:03;18.30;60.20
41533;DHT22;27262;-35.248;149.138;2023-06-22T01:06:41;18.30;59.10
41533;DHT22;27262;-35.248;149.138;2023-06-22T01:09:30;18.20;58.70
41533;DHT22;27262;-35.248;149.138;2023-06-22T01:12:04;18.20;58.40
41533;DHT22;27262;-35.248;149.138;2023-06-22T01:14:49;18.10;58.40
41533;DHT22;27262;-35.248;149.138;2023-06-22T01:17:22;18.20;58.80
41533;DHT22;27262;-35.248;149.138;2023-06-22T01:19:55;18.10;59.10
41533;DHT22;27262;-35.248;149.138;2023-06-22T01:22:31;18.10;58.30
41533;DHT22;27262;-35.248;149.138;2023-06-22T01:30:22;18.10;57.70
41533;DHT22;27262;-35.248;149.138;2023-06-22T01:32:57;18.10;57.60
41533;DHT22;27262;-35.248;149.138;2023-06-22T01:35:29;18.10;57.60
41533;DHT22;27262;-35.248;149.138;2023-06-22T01:38:01;18.10;59.40
41533;DHT22;27262;-35.248;149.138;2023-06-22T01:40:33;18.10;59.20
41533;DHT22;27262;-35.248;149.138;2023-06-22T01:43:04;18.20;59.60
41533;DHT22;27262;-35.248;149.138;2023-06-22T01:45:35;18.30;59.80
41533;DHT22;27262;-35.248;149.138;2023-06-22T01:48:06;18.30;60.30
41533;DHT22;27262;-35.248;149.138;2023-06-22T01:50:36;18.40;60.70
41533;DHT22;27262;-35.248;149.138;2023-06-22T01:53:07;18.40;60.50
41533;DHT22;27262;-35.248;149.138;2023-06-22T01:55:37;18.40;60.30
41533;DHT22;27262;-35.248;149.138;2023-06-22T01:58:08;18.40;60.00
41533;DHT22;27262;-35.248;149.138;2023-06-22T02:00:43;18.50;59.80
41533;DHT22;27262;-35.248;149.138;2023-06-22T02:03:21;18.50;59.80
41533;DHT22;27262;-35.248;149.138;2023-06-22T02:06:03;18.50;59.70
41533;DHT22;27262;-35.248;149.138;2023-06-22T02:08:47;18.50;59.60
41533;DHT22;27262;-35.248;149.138;2023-06-22T02:11:21;18.60;59.60
41533;DHT22;27262;-35.248;149.138;2023-06-22T02:13:52;18.60;59.60
41533;DHT22;27262;-35.248;149.138;2023-06-22T02:16:22;18.60;59.60
41533;DHT22;27262;-35.248;149.138;2023-06-22T02:18:53;18.60;59.60
41533;DHT22;27262;-35.248;149.138;2023-06-22T02:21:24;18.60;59.60
41533;DHT22;27262;-35.248;149.138;2023-06-22T02:23:54;18.60;59.60
41533;DHT22;27262;-35.248;149.138;2023-06-22T02:26:25;18.60;59.60
41533;DHT22;27262;-35.248;149.138;2023-06-22T02:28:56;18.60;59.50
41533;DHT22;27262;-35.248;149.138;2023-06-22T02:31:26;18.60;59.80
41533;DHT22;27262;-35.248;149.138;2023-06-22T02:34:00;18.70;60.10
41533;DHT22;27262;-35.248;149.138;2023-06-22T02:36:30;18.70;60.10
41533;DHT22;27262;-35.248;149.138;2023-06-22T02:39:02;18.70;60.10
41533;DHT22;27262;-35.248;149.138;2023-06-22T02:41:33;18.70;60.20
41533;DHT22;27262;-35.248;149.138;2023-06-22T02:44:03;18.70;60.00
41533;DHT22;27262;-35.248;149.138;2023-06-22T02:46:35;18.70;59.90
41533;DHT22;27262;-35.248;149.138;2023-06-22T02:49:05;18.80;59.80
41533;DHT22;27262;-35.248;149.138;2023-06-22T02:51:38;18.80;59.60
41533;DHT22;27262;-35.248;149.138;2023-06-22T02:54:08;18.80;59.60
41533;DHT22;27262;-35.248;149.138;2023-06-22T02:56:39;18.80;59.70
41533;DHT22;27262;-35.248;149.138;2023-06-22T02:59:10;18.80;59.60
41533;DHT22;27262;-35.248;149.138;2023-06-22T03:01:41;18.80;59.60
41533;DHT22;27262;-35.248;149.138;2023-06-22T03:04:12;18.80;59.60
41533;DHT22;27262;-35.248;149.138;2023-06-22T03:06:43;18.80;59.60
41533;DHT22;27262;-35.248;149.138;2023-06-22T03:09:13;18.80;59.50
41533;DHT22;27262;-35.248;149.138;2023-06-22T03:11:44;18.80;59.50
41533;DHT22;27262;-35.248;149.138;2023-06-22T03:14:14;18.80;59.60
41533;DHT22;27262;-35.248;149.138;2023-06-22T03:16:44;18.80;59.60
41533;DHT22;27262;-35.248;149.138;2023-06-22T03:19:14;18.90;59.80
41533;DHT22;27262;-35.248;149.138;2023-06-22T03:21:45;18.90;59.80
41533;DHT22;27262;-35.248;149.138;2023-06-22T03:24:15;18.90;59.70
41533;DHT22;27262;-35.248;149.138;2023-06-22T03:26:45;18.90;59.70
41533;DHT22;27262;-35.248;149.138;2023-06-22T03:29:16;18.90;59.60
41533;DHT22;27262;-35.248;149.138;2023-06-22T03:31:46;19.00;59.70
41533;DHT22;27262;-35.248;149.138;2023-06-22T03:34:17;19.00;59.60
41533;DHT22;27262;-35.248;149.138;2023-06-22T03:36:48;19.00;60.30
41533;DHT22;27262;-35.248;149.138;2023-06-22T03:39:18;19.00;59.50
41533;DHT22;27262;-35.248;149.138;2023-06-22T03:41:49;19.00;59.50
41533;DHT22;27262;-35.248;149.138;2023-06-22T03:44:19;19.00;59.50
41533;DHT22;27262;-35.248;149.138;2023-06-22T03:46:50;19.00;59.30
41533;DHT22;27262;-35.248;149.138;2023-06-22T03:49:20;19.10;59.40
41533;DHT22;27262;-35.248;149.138;2023-06-22T03:51:50;19.10;59.30
41533;DHT22;27262;-35.248;149.138;2023-06-22T03:54:20;19.10;59.30
41533;DHT22;27262;-35.248;149.138;2023-06-22T03:56:51;19.20;59.30
41533;DHT22;27262;-35.248;149.138;2023-06-22T03:59:21;19.20;59.30
41533;DHT22;27262;-35.248;149.138;2023-06-22T04:01:51;19.20;59.20
41533;DHT22;27262;-35.248;149.138;2023-06-22T04:04:22;19.20;59.20
41533;DHT22;27262;-35.248;149.138;2023-06-22T04:06:52;19.20;59.10
41533;DHT22;27262;-35.248;149.138;2023-06-22T04:09:23;19.20;59.10
41533;DHT22;27262;-35.248;149.138;2023-06-22T04:11:53;19.20;59.10
41533;DHT22;27262;-35.248;149.138;2023-06-22T04:14:24;19.20;59.10
41533;DHT22;27262;-35.248;149.138;2023-06-22T04:16:55;19.20;59.20
41533;DHT22;27262;-35.248;149.138;2023-06-22T04:19:25;19.20;59.30
41533;DHT22;27262;-35.248;149.138;2023-06-22T04:21:55;19.20;59.40
41533;DHT22;27262;-35.248;149.138;2023-06-22T04:24:26;19.10;59.40
41533;DHT22;27262;-35.248;149.138;2023-06-22T04:26:56;19.10;59.50
41533;DHT22;27262;-35.248;149.138;2023-06-22T04:29:27;19.10;59.50
41533;DHT22;27262;-35.248;149.138;2023-06-22T04:31:59;19.10;59.50
41533;DHT22;27262;-35.248;149.138;2023-06-22T04:34:32;19.10;59.50
41533;DHT22;27262;-35.248;149.138;2023-06-22T04:37:03;19.10;59.40
41533;DHT22;27262;-35.248;149.138;2023-06-22T04:39:33;19.20;59.40
41533;DHT22;27262;-35.248;149.138;2023-06-22T04:42:03;19.20;59.40
41533;DHT22;27262;-35.248;149.138;2023-06-22T04:44:34;19.20;59.50
41533;DHT22;27262;-35.248;149.138;2023-06-22T04:47:05;19.30;59.40
41533;DHT22;27262;-35.248;149.138;2023-06-22T04:49:38;19.30;59.50
41533;DHT22;27262;-35.248;149.138;2023-06-22T04:52:11;19.30;59.30
41533;DHT22;27262;-35.248;149.138;2023-06-22T04:54:41;19.40;59.50
41533;DHT22;27262;-35.248;149.138;2023-06-22T04:57:17;19.40;59.50
41533;DHT22;27262;-35.248;149.138;2023-06-22T04:59:47;19.40;59.30
41533;DHT22;27262;-35.248;149.138;2023-06-22T05:02:17;19.50;59.30
41533;DHT22;27262;-35.248;149.138;2023-06-22T05:04:48;19.50;59.30
41533;DHT22;27262;-35.248;149.138;2023-06-22T05:07:20;19.50;59.20
41533;DHT22;27262;-35.248;149.138;2023-06-22T05:09:55;19.60;59.50
41533;DHT22;27262;-35.248;149.138;2023-06-22T05:12:25;19.60;59.30
41533;DHT22;27262;-35.248;149.138;2023-06-22T05:14:55;19.60;59.40
41533;DHT22;27262;-35.248;149.138;2023-06-22T05:17:26;19.60;59.50
41533;DHT22;27262;-35.248;149.138;2023-06-22T05:19:56;19.60;59.30
41533;DHT22;27262;-35.248;149.138;2023-06-22T05:22:26;19.60;59.40
41533;DHT22;27262;-35.248;149.138;2023-06-22T05:24:57;19.70;59.40
41533;DHT22;27262;-35.248;149.138;2023-06-22T05:27:27;19.70;59.30
41533;DHT22;27262;-35.248;149.138;2023-06-22T05:29:57;19.70;59.40
41533;DHT22;27262;-35.248;149.138;2023-06-22T05:32:28;19.80;59.20
41533;DHT22;27262;-35.248;149.138;2023-06-22T05:34:58;19.70;59.30
41533;DHT22;27262;-35.248;149.138;2023-06-22T05:37:29;19.80;59.30
41533;DHT22;27262;-35.248;149.138;2023-06-22T05:39:59;19.80;59.20
41533;DHT22;27262;-35.248;149.138;2023-06-22T05:42:30;19.80;59.20
41533;DHT22;27262;-35.248;149.138;2023-06-22T05:45:01;19.80;59.90
41533;DHT22;27262;-35.248;149.138;2023-06-22T05:47:31;19.80;59.10
41533;DHT22;27262;-35.248;149.138;2023-06-22T05:50:01;19.80;59.20
41533;DHT22;27262;-35.248;149.138;2023-06-22T05:52:40;19.90;59.40
41533;DHT22;27262;-35.248;149.138;2023-06-22T05:55:11;19.90;59.10
41533;DHT22;27262;-35.248;149.138;2023-06-22T05:57:41;19.90;59.20
41533;DHT22;27262;-35.248;149.138;2023-06-22T06:00:12;19.90;59.10
41533;DHT22;27262;-35.248;149.138;2023-06-22T06:02:43;19.90;59.10
41533;DHT22;27262;-35.248;149.138;2023-06-22T06:05:13;20.00;59.10
41533;DHT22;27262;-35.248;149.138;2023-06-22T06:07:44;20.00;59.00
41533;DHT22;27262;-35.248;149.138;2023-06-22T06:10:15;20.00;58.90
41533;DHT22;27262;-35.248;149.138;2023-06-22T06:12:45;20.10;58.90
41533;DHT22;27262;-35.248;149.138;2023-06-22T06:15:16;20.10;58.80
41533;DHT22;27262;-35.248;149.138;2023-06-22T06:17:51;20.10;58.80
41533;DHT22;27262;-35.248;149.138;2023-06-22T06:20:25;20.10;58.90
41533;DHT22;27262;-35.248;149.138;2023-06-22T06:22:58;20.20;59.00
41533;DHT22;27262;-35.248;149.138;2023-06-22T06:25:28;20.10;58.80
41533;DHT22;27262;-35.248;149.138;2023-06-22T06:27:59;20.10;58.90
41533;DHT22;27262;-35.248;149.138;2023-06-22T06:30:29;20.20;58.90
41533;DHT22;27262;-35.248;149.138;2023-06-22T06:33:00;20.20;58.70
41533;DHT22;27262;-35.248;149.138;2023-06-22T06:35:31;20.20;58.70
41533;DHT22;27262;-35.248;149.138;2023-06-22T06:38:01;20.30;58.80
41533;DHT22;27262;-35.248;149.138;2023-06-22T06:40:32;20.30;58.70
41533;DHT22;27262;-35.248;149.138;2023-06-22T06:43:02;20.30;58.50
41533;DHT22;27262;-35.248;149.138;2023-06-22T06:45:32;20.30;58.60
41533;DHT22;27262;-35.248;149.138;2023-06-22T06:48:04;20.30;58.60
41533;DHT22;27262;-35.248;149.138;2023-06-22T06:50:34;20.30;58.50
41533;DHT22;27262;-35.248;149.138;2023-06-22T06:53:04;20.30;58.30
41533;DHT22;27262;-35.248;149.138;2023-06-22T06:55:35;20.40;58.40
41533;DHT22;27262;-35.248;149.138;2023-06-22T06:58:06;20.40;58.50
41533;DHT22;27262;-35.248;149.138;2023-06-22T07:00:39;20.40;58.20
41533;DHT22;27262;-35.248;149.138;2023-06-22T07:03:10;20.40;58.10
41533;DHT22;27262;-35.248;149.138;2023-06-22T07:05:41;20.40;58.10
41533;DHT22;27262;-35.248;149.138;2023-06-22T07:08:11;20.40;58.00
41533;DHT22;27262;-35.248;149.138;2023-06-22T07:10:42;20.50;58.10
41533;DHT22;27262;-35.248;149.138;2023-06-22T07:13:13;20.50;58.00
41533;DHT22;27262;-35.248;149.138;2023-06-22T07:15:43;20.50;57.90
41533;DHT22;27262;-35.248;149.138;2023-06-22T07:18:13;20.50;57.90
41533;DHT22;27262;-35.248;149.138;2023-06-22T07:20:43;20.50;57.70
41533;DHT22;27262;-35.248;149.138;2023-06-22T07:23:14;20.50;57.80
41533;DHT22;27262;-35.248;149.138;2023-06-22T07:25:44;20.50;57.70
41533;DHT22;27262;-35.248;149.138;2023-06-22T07:28:14;20.60;57.80
41533;DHT22;27262;-35.248;149.138;2023-06-22T07:30:44;20.60;57.80
41533;DHT22;27262;-35.248;149.138;2023-06-22T07:33:16;20.60;57.90
41533;DHT22;27262;-35.248;149.138;2023-06-22T07:35:46;20.60;57.90
41533;DHT22;27262;-35.248;149.138;2023-06-22T07:38:18;20.60;57.90
41533;DHT22;27262;-35.248;149.138;2023-06-22T07:40:59;20.60;57.80
41533;DHT22;27262;-35.248;149.138;2023-06-22T07:43:30;20.60;57.90
41533;DHT22;27262;-35.248;149.138;2023-06-22T07:46:03;20.60;57.80
41533;DHT22;27262;-35.248;149.138;2023-06-22T07:48:33;20.60;57.80
41533;DHT22;27262;-35.248;149.138;2023-06-22T07:51:06;20.60;57.80
41533;DHT22;27262;-35.248;149.138;2023-06-22T07:53:36;20.60;57.80
41533;DHT22;27262;-35.248;149.138;2023-06-22T07:56:06;20.70;57.70
41533;DHT22;27262;-35.248;149.138;2023-06-22T07:58:37;20.70;58.30
41533;DHT22;27262;-35.248;149.138;2023-06-22T08:01:07;20.70;57.60
41533;DHT22;27262;-35.248;149.138;2023-06-22T08:03:37;20.70;57.60
41533;DHT22;27262;-35.248;149.138;2023-06-22T08:06:09;20.70;57.50
41533;DHT22;27262;-35.248;149.138;2023-06-22T08:08:40;20.70;57.50
41533;DHT22;27262;-35.248;149.138;2023-06-22T08:11:12;20.70;57.50
41533;DHT22;27262;-35.248;149.138;2023-06-22T08:13:44;20.70;57.40
41533;DHT22;27262;-35.248;149.138;2023-06-22T08:16:14;20.60;57.40
41533;DHT22;27262;-35.248;149.138;2023-06-22T08:18:44;20.60;57.40
41533;DHT22;27262;-35.248;149.138;2023-06-22T08:21:15;20.60;57.30
41533;DHT22;27262;-35.248;149.138;2023-06-22T08:23:45;20.60;57.40
41533;DHT22;27262;-35.248;149.138;2023-06-22T08:26:16;20.60;57.40
41533;DHT22;27262;-35.248;149.138;2023-06-22T08:28:47;20.60;57.40
41533;DHT22;27262;-35.248;149.138;2023-06-22T08:31:18;20.60;57.40
41533;DHT22;27262;-35.248;149.138;2023-06-22T08:33:49;20.60;57.50
41533;DHT22;27262;-35.248;149.138;2023-06-22T08:36:20;20.60;57.70
41533;DHT22;27262;-35.248;149.138;2023-06-22T08:38:51;20.60;57.80
41533;DHT22;27262;-35.248;149.138;2023-06-22T08:41:23;20.50;57.90
41533;DHT22;27262;-35.248;149.138;2023-06-22T08:43:55;20.50;57.90
41533;DHT22;27262;-35.248;149.138;2023-06-22T08:46:25;20.50;58.10
41533;DHT22;27262;-35.248;149.138;2023-06-22T08:49:00;20.50;58.10
41533;DHT22;27262;-35.248;149.138;2023-06-22T08:51:31;20.50;58.10
41533;DHT22;27262;-35.248;149.138;2023-06-22T08:54:02;20.50;58.20
41533;DHT22;27262;-35.248;149.138;2023-06-22T08:56:34;20.40;58.20
41533;DHT22;27262;-35.248;149.138;2023-06-22T08:59:05;20.40;58.20
41533;DHT22;27262;-35.248;149.138;2023-06-22T09:01:37;20.40;58.30
41533;DHT22;27262;-35.248;149.138;2023-06-22T09:04:07;20.40;58.30
41533;DHT22;27262;-35.248;149.138;2023-06-22T09:06:39;20.40;58.30
41533;DHT22;27262;-35.248;149.138;2023-06-22T09:09:15;20.40;58.40
41533;DHT22;27262;-35.248;149.138;2023-06-22T09:11:46;20.40;58.40
41533;DHT22;27262;-35.248;149.138;2023-06-22T09:14:16;20.40;58.40
41533;DHT22;27262;-35.248;149.138;2023-06-22T09:16:48;20.40;58.40
41533;DHT22;27262;-35.248;149.138;2023-06-22T09:19:18;20.40;58.50
41533;DHT22;27262;-35.248;149.138;2023-06-22T09:21:48;20.50;58.50
41533;DHT22;27262;-35.248;149.138;2023-06-22T09:24:19;20.50;58.40
41533;DHT22;27262;-35.248;149.138;2023-06-22T09:26:49;20.50;58.40
41533;DHT22;27262;-35.248;149.138;2023-06-22T09:29:20;20.50;58.40
41533;DHT22;27262;-35.248;149.138;2023-06-22T09:31:50;20.60;58.50
41533;DHT22;27262;-35.248;149.138;2023-06-22T09:34:23;20.60;58.40
41533;DHT22;27262;-35.248;149.138;2023-06-22T09:36:53;20.60;58.50
41533;DHT22;27262;-35.248;149.138;2023-06-22T09:39:24;20.60;58.40
41533;DHT22;27262;-35.248;149.138;2023-06-22T09:41:54;20.60;58.40
41533;DHT22;27262;-35.248;149.138;2023-06-22T09:44:25;20.60;58.40
41533;DHT22;27262;-35.248;149.138;2023-06-22T09:46:55;20.70;58.40
41533;DHT22;27262;-35.248;149.138;2023-06-22T09:49:25;20.70;58.40
41533;DHT22;27262;-35.248;149.138;2023-06-22T09:52:15;20.70;58.40
41533;DHT22;27262;-35.248;149.138;2023-06-22T09:54:47;20.70;58.40
41533;DHT22;27262;-35.248;149.138;2023-06-22T09:57:18;20.70;58.40
41533;DHT22;27262;-35.248;149.138;2023-06-22T09:59:48;20.80;58.30
41533;DHT22;27262;-35.248;149.138;2023-06-22T10:02:18;20.80;58.50
41533;DHT22;27262;-35.248;149.138;2023-06-22T10:04:49;20.80;58.40
41533;DHT22;27262;-35.248;149.138;2023-06-22T10:07:20;20.80;58.30
41533;DHT22;27262;-35.248;149.138;2023-06-22T10:09:51;20.80;58.20
41533;DHT22;27262;-35.248;149.138;2023-06-22T10:12:21;20.80;58.30
41533;DHT22;27262;-35.248;149.138;2023-06-22T10:14:52;20.80;58.40
41533;DHT22;27262;-35.248;149.138;2023-06-22T10:17:22;20.80;58.40
41533;DHT22;27262;-35.248;149.138;2023-06-22T10:19:53;20.90;58.40
41533;DHT22;27262;-35.248;149.138;2023-06-22T10:22:23;20.90;58.50
41533;DHT22;27262;-35.248;149.138;2023-06-22T10:24:55;20.90;58.50
41533;DHT22;27262;-35.248;149.138;2023-06-22T10:27:25;20.90;58.40
41533;DHT22;27262;-35.248;149.138;2023-06-22T10:29:56;20.90;58.40
41533;DHT22;27262;-35.248;149.138;2023-06-22T10:32:26;20.90;58.30
41533;DHT22;27262;-35.248;149.138;2023-06-22T10:34:58;20.90;58.30
41533;DHT22;27262;-35.248;149.138;2023-06-22T10:37:28;20.90;58.30
41533;DHT22;27262;-35.248;149.138;2023-06-22T10:39:59;21.00;58.30
41533;DHT22;27262;-35.248;149.138;2023-06-22T10:42:29;21.00;58.20
41533;DHT22;27262;-35.248;149.138;2023-06-22T10:45:05;21.00;58.30
41533;DHT22;27262;-35.248;149.138;2023-06-22T10:47:36;21.00;58.10
41533;DHT22;27262;-35.248;149.138;2023-06-22T10:50:07;21.00;58.10
41533;DHT22;27262;-35.248;149.138;2023-06-22T10:52:37;21.00;58.00
41533;DHT22;27262;-35.248;149.138;2023-06-22T10:55:09;21.00;57.90
41533;DHT22;27262;-35.248;149.138;2023-06-22T10:57:39;21.00;57.90
41533;DHT22;27262;-35.248;149.138;2023-06-22T11:00:14;21.00;58.50
41533;DHT22;27262;-35.248;149.138;2023-06-22T11:02:45;21.00;57.90
41533;DHT22;27262;-35.248;149.138;2023-06-22T11:05:16;21.10;57.90
41533;DHT22;27262;-35.248;149.138;2023-06-22T11:07:46;21.10;57.90
41533;DHT22;27262;-35.248;149.138;2023-06-22T11:10:18;21.10;57.90
41533;DHT22;27262;-35.248;149.138;2023-06-22T11:12:49;21.10;57.90
41533;DHT22;27262;-35.248;149.138;2023-06-22T11:15:19;21.10;57.80
41533;DHT22;27262;-35.248;149.138;2023-06-22T11:17:50;21.10;57.90
41533;DHT22;27262;-35.248;149.138;2023-06-22T11:20:20;21.10;57.90
41533;DHT22;27262;-35.248;149.138;2023-06-22T11:22:50;21.10;57.90
41533;DHT22;27262;-35.248;149.138;2023-06-22T11:25:21;21.10;57.90
41533;DHT22;27262;-35.248;149.138;2023-06-22T11:27:51;21.10;57.80
41533;DHT22;27262;-35.248;149.138;2023-06-22T11:30:23;21.10;57.80
41533;DHT22;27262;-35.248;149.138;2023-06-22T11:32:54;21.10;57.80
41533;DHT22;27262;-35.248;149.138;2023-06-22T11:35:25;21.10;57.80
41533;DHT22;27262;-35.248;149.138;2023-06-22T11:37:55;21.10;57.80
41533;DHT22;27262;-35.248;149.138;2023-06-22T11:40:25;21.10;57.80
41533;DHT22;27262;-35.248;149.138;2023-06-22T11:42:56;21.10;57.90
41533;DHT22;27262;-35.248;149.138;2023-06-22T11:45:27;21.10;57.90
41533;DHT22;27262;-35.248;149.138;2023-06-22T11:47:58;21.10;57.90
41533;DHT22;27262;-35.248;149.138;2023-06-22T11:50:28;21.10;58.10
41533;DHT22;27262;-35.248;149.138;2023-06-22T11:52:59;21.10;58.00
41533;DHT22;27262;-35.248;149.138;2023-06-22T11:55:30;21.10;57.90
41533;DHT22;27262;-35.248;149.138;2023-06-22T11:58:00;21.10;57.90
41533;DHT22;27262;-35.248;149.138;2023-06-22T12:00:33;21.00;57.80
41533;DHT22;27262;-35.248;149.138;2023-06-22T12:03:18;21.00;57.90
41533;DHT22;27262;-35.248;149.138;2023-06-22T12:05:50;21.00;57.80
41533;DHT22;27262;-35.248;149.138;2023-06-22T12:08:24;21.00;57.70
41533;DHT22;27262;-35.248;149.138;2023-06-22T12:11:06;21.00;57.70
41533;DHT22;27262;-35.248;149.138;2023-06-22T12:13:37;21.00;57.70
41533;DHT22;27262;-35.248;149.138;2023-06-22T12:16:07;21.00;57.60
41533;DHT22;27262;-35.248;149.138;2023-06-22T12:18:38;21.00;57.60
41533;DHT22;27262;-35.248;149.138;2023-06-22T12:21:08;21.00;57.60
41533;DHT22;27262;-35.248;149.138;2023-06-22T12:23:38;21.00;57.60
41533;DHT22;27262;-35.248;149.138;2023-06-22T12:26:09;20.90;57.50
41533;DHT22;27262;-35.248;149.138;2023-06-22T12:28:39;20.90;57.50
41533;DHT22;27262;-35.248;149.138;2023-06-22T12:31:09;20.80;57.60
41533;DHT22;27262;-35.248;149.138;2023-06-22T12:33:40;20.70;57.70
41533;DHT22;27262;-35.248;149.138;2023-06-22T12:36:10;20.70;57.80
41533;DHT22;27262;-35.248;149.138;2023-06-22T12:38:40;20.70;58.20
41533;DHT22;27262;-35.248;149.138;2023-06-22T12:41:11;20.70;58.50
41533;DHT22;27262;-35.248;149.138;2023-06-22T12:43:41;20.60;58.70
41533;DHT22;27262;-35.248;149.138;2023-06-22T12:46:11;20.60;58.90
41533;DHT22;27262;-35.248;149.138;2023-06-22T12:48:42;20.60;59.00
41533;DHT22;27262;-35.248;149.138;2023-06-22T12:51:12;20.50;59.10
41533;DHT22;27262;-35.248;149.138;2023-06-22T12:53:42;20.50;59.20
41533;DHT22;27262;-35.248;149.138;2023-06-22T12:56:13;20.40;59.20
41533;DHT22;27262;-35.248;149.138;2023-06-22T12:58:43;20.40;59.20
41533;DHT22;27262;-35.248;149.138;2023-06-22T13:01:13;20.30;59.30
41533;DHT22;27262;-35.248;149.138;2023-06-22T13:03:47;20.30;59.30
41533;DHT22;27262;-35.248;149.138;2023-06-22T13:06:18;20.30;59.40
41533;DHT22;27262;-35.248;149.138;2023-06-22T13:08:48;20.20;59.30
41533;DHT22;27262;-35.248;149.138;2023-06-22T13:11:21;20.30;59.40
41533;DHT22;27262;-35.248;149.138;2023-06-22T13:13:52;20.20;59.50
41533;DHT22;27262;-35.248;149.138;2023-06-22T13:16:22;20.20;59.30
41533;DHT22;27262;-35.248;149.138;2023-06-22T13:18:52;20.10;59.00
41533;DHT22;27262;-35.248;149.138;2023-06-22T13:21:22;20.10;59.00
41533;DHT22;27262;-35.248;149.138;2023-06-22T13:23:53;20.10;58.90
41533;DHT22;27262;-35.248;149.138;2023-06-22T13:26:24;20.10;58.90
41533;DHT22;27262;-35.248;149.138;2023-06-22T13:28:54;20.00;58.80
41533;DHT22;27262;-35.248;149.138;2023-06-22T13:31:25;20.00;58.80
41533;DHT22;27262;-35.248;149.138;2023-06-22T13:33:55;20.00;58.80
41533;DHT22;27262;-35.248;149.138;2023-06-22T13:36:26;20.00;58.90
41533;DHT22;27262;-35.248;149.138;2023-06-22T13:39:01;19.90;58.80
41533;DHT22;27262;-35.248;149.138;2023-06-22T13:41:31;19.90;58.80
41533;DHT22;27262;-35.248;149.138;2023-06-22T13:44:02;19.90;58.80
41533;DHT22;27262;-35.248;149.138;2023-06-22T13:46:32;19.90;58.80
41533;DHT22;27262;-35.248;149.138;2023-06-22T13:49:02;19.90;58.90
41533;DHT22;27262;-35.248;149.138;2023-06-22T13:51:33;19.80;58.80
41533;DHT22;27262;-35.248;149.138;2023-06-22T13:54:03;19.80;58.90
41533;DHT22;27262;-35.248;149.138;2023-06-22T13:56:54;19.80;58.80
41533;DHT22;27262;-35.248;149.138;2023-06-22T13:59:24;19.70;58.90
41533;DHT22;27262;-35.248;149.138;2023-06-22T14:01:57;19.70;58.90
41533;DHT22;27262;-35.248;149.138;2023-06-22T14:04:28;19.70;58.90
41533;DHT22;27262;-35.248;149.138;2023-06-22T14:06:58;19.60;59.00
41533;DHT22;27262;-35.248;149.138;2023-06-22T14:09:29;19.60;58.90
41533;DHT22;27262;-35.248;149.138;2023-06-22T14:12:06;19.60;58.90
41533;DHT22;27262;-35.248;149.138;2023-06-22T14:14:37;19.60;58.90
41533;DHT22;27262;-35.248;149.138;2023-06-22T14:17:07;19.50;59.00
41533;DHT22;27262;-35.248;149.138;2023-06-22T14:19:37;19.50;59.00
41533;DHT22;27262;-35.248;149.138;2023-06-22T14:22:07;19.50;59.00
41533;DHT22;27262;-35.248;149.138;2023-06-22T14:24:38;19.50;59.00
41533;DHT22;27262;-35.248;149.138;2023-06-22T14:27:08;19.40;59.00
41533;DHT22;27262;-35.248;149.138;2023-06-22T14:29:39;19.40;59.00
41533;DHT22;27262;-35.248;149.138;2023-06-22T14:32:09;19.40;59.00
41533;DHT22;27262;-35.248;149.138;2023-06-22T14:34:39;19.40;59.00
41533;DHT22;27262;-35.248;149.138;2023-06-22T14:37:11;19.30;59.00
41533;DHT22;27262;-35.248;149.138;2023-06-22T14:39:42;19.30;59.10
41533;DHT22;27262;-35.248;149.138;2023-06-22T14:42:13;19.30;59.10
41533;DHT22;27262;-35.248;149.138;2023-06-22T14:44:43;19.30;59.10
41533;DHT22;27262;-35.248;149.138;2023-06-22T14:47:14;19.20;59.10
41533;DHT22;27262;-35.248;149.138;2023-06-22T14:49:44;19.30;59.20
41533;DHT22;27262;-35.248;149.138;2023-06-22T14:52:15;19.20;59.10
41533;DHT22;27262;-35.248;149.138;2023-06-22T14:54:45;19.20;59.10
41533;DHT22;27262;-35.248;149.138;2023-06-22T14:57:15;19.20;59.10
41533;DHT22;27262;-35.248;149.138;2023-06-22T14:59:52;19.20;59.20
41533;DHT22;27262;-35.248;149.138;2023-06-22T15:02:23;19.10;59.20
41533;DHT22;27262;-35.248;149.138;2023-06-22T15:04:54;19.10;59.10
41533;DHT22;27262;-35.248;149.138;2023-06-22T15:07:24;19.00;59.10
41533;DHT22;27262;-35.248;149.138;2023-06-22T15:09:55;19.00;59.10
41533;DHT22;27262;-35.248;149.138;2023-06-22T15:12:25;19.00;59.10
41533;DHT22;27262;-35.248;149.138;2023-06-22T15:14:56;19.00;59.10
41533;DHT22;27262;-35.248;149.138;2023-06-22T15:17:27;19.00;59.20